sensor_id;sensor_type;location;lat;lon;timestamp;P1;durP1;ratioP1;P2;durP2;ratioP2
43841;SDS011;29495;49.970;20.842;2023-03-01T07:42:50;55.75;;;29.13;;
43841;SDS011;29495;49.970;20.842;2023-03-01T07:46:12;56.30;;;32.92;;
43841;SDS011;29495;49.970;20.842;2023-03-01T07:49:16;55.53;;;31.75;;
43841;SDS011;29495;49.970;20.842;2023-03-01T08:08:51;58.15;;;31.48;;
43841;SDS011;29495;49.970;20.842;2023-03-01T08:11:41;52.42;;;30.30;;
43841;SDS011;29495;49.970;20.842;2023-03-01T08:14:23;54.10;;;31.13;;
43841;SDS011;29495;49.970;20.842;2023-03-01T08:16:52;59.10;;;33.35;;
43841;SDS011;29495;49.970;20.842;2023-03-01T08:19:21;57.90;;;32.22;;
43841;SDS011;29495;49.970;20.842;2023-03-01T08:27:28;58.15;;;31.42;;
43841;SDS011;29495;49.970;20.842;2023-03-01T08:29:54;56.63;;;31.38;;
43841;SDS011;29495;49.970;20.842;2023-03-01T08:32:20;55.05;;;30.42;;
43841;SDS011;29495;49.970;20.842;2023-03-01T08:34:46;52.25;;;27.48;;
43841;SDS011;29495;49.970;20.842;2023-03-01T08:37:13;44.95;;;25.58;;
43841;SDS011;29495;49.970;20.842;2023-03-01T08:39:39;45.83;;;25.38;;
43841;SDS011;29495;49.970;20.842;2023-03-01T08:42:05;45.13;;;23.98;;
43841;SDS011;29495;49.970;20.842;2023-03-01T08:44:31;39.35;;;23.83;;
43841;SDS011;29495;49.970;20.842;2023-03-01T08:46:57;37.05;;;21.08;;
43841;SDS011;29495;49.970;20.842;2023-03-01T08:49:23;38.85;;;23.00;;
43841;SDS011;29495;49.970;20.842;2023-03-01T08:51:49;39.00;;;21.23;;
43841;SDS011;29495;49.970;20.842;2023-03-01T08:54:17;38.63;;;20.80;;
43841;SDS011;29495;49.970;20.842;2023-03-01T08:56:45;38.15;;;23.25;;
43841;SDS011;29495;49.970;20.842;2023-03-01T08:59:12;43.08;;;22.75;;
43841;SDS011;29495;49.970;20.842;2023-03-01T09:01:39;45.13;;;23.50;;
43841;SDS011;29495;49.970;20.842;2023-03-01T09:06:35;39.50;;;22.05;;
43841;SDS011;29495;49.970;20.842;2023-03-01T09:09:02;45.80;;;24.52;;
43841;SDS011;29495;49.970;20.842;2023-03-01T09:11:29;48.95;;;25.85;;
43841;SDS011;29495;49.970;20.842;2023-03-01T09:13:55;48.28;;;26.70;;
43841;SDS011;29495;49.970;20.842;2023-03-01T09:16:22;52.20;;;26.85;;
43841;SDS011;29495;49.970;20.842;2023-03-01T09:18:50;49.05;;;25.75;;
43841;SDS011;29495;49.970;20.842;2023-03-01T09:21:18;47.72;;;25.85;;
43841;SDS011;29495;49.970;20.842;2023-03-01T09:23:46;50.20;;;26.17;;
43841;SDS011;29495;49.970;20.842;2023-03-01T09:26:15;54.72;;;28.98;;
43841;SDS011;29495;49.970;20.842;2023-03-01T09:28:47;56.20;;;30.42;;
43841;SDS011;29495;49.970;20.842;2023-03-01T09:31:14;50.97;;;29.15;;
43841;SDS011;29495;49.970;20.842;2023-03-01T09:33:42;50.53;;;27.85;;
43841;SDS011;29495;49.970;20.842;2023-03-01T09:36:11;50.63;;;27.85;;
43841;SDS011;29495;49.970;20.842;2023-03-01T09:38:39;47.45;;;27.58;;
43841;SDS011;29495;49.970;20.842;2023-03-01T09:43:50;51.55;;;25.95;;
43841;SDS011;29495;49.970;20.842;2023-03-01T09:46:22;48.72;;;25.23;;
43841;SDS011;29495;49.970;20.842;2023-03-01T09:48:57;48.70;;;27.05;;
